createdAt,value
2016-09-14T00:00:12.628Z,20.52
2016-09-14T00:00:53.186Z,20.62
2016-09-14T00:01:35.350Z,20.54
2016-09-14T00:02:15.860Z,20.61
2016-09-14T00:02:56.443Z,20.58
2016-09-14T00:03:37.047Z,20.55
2016-09-14T00:04:17.565Z,20.54
2016-09-14T00:04:59.119Z,20.47
2016-09-14T00:05:41.351Z,20.47
2016-09-14T00:06:23.810Z,20.43
2016-09-14T00:07:07.172Z,20.41
2016-09-14T00:07:47.655Z,20.48
2016-09-14T00:08:28.194Z,20.42
2016-09-14T00:09:08.689Z,20.38
2016-09-14T00:09:49.248Z,20.36
2016-09-14T00:10:29.903Z,20.31
2016-09-14T00:11:10.566Z,20.32
2016-09-14T00:11:51.089Z,20.32
2016-09-14T00:12:31.635Z,20.33
2016-09-14T00:13:12.289Z,20.24
2016-09-14T00:13:54.875Z,20.23
2016-09-14T00:14:35.357Z,20.28
2016-09-14T00:15:17.762Z,20.2
2016-09-14T00:15:59.955Z,20.2
2016-09-14T00:16:40.542Z,20.14
2016-09-14T00:17:21.120Z,20.13
2016-09-14T00:18:01.739Z,20.11
2016-09-14T00:18:42.332Z,20.2
2016-09-14T00:19:25.548Z,20.13
2016-09-14T00:20:06.017Z,20.2
2016-09-14T00:20:46.552Z,20.21
2016-09-14T00:21:27.239Z,20.16
2016-09-14T00:22:09.852Z,20.13
2016-09-14T00:22:50.476Z,20.05
2016-09-14T00:23:31.009Z,20.03
2016-09-14T00:24:11.589Z,20.06
2016-09-14T00:24:52.119Z,19.99
2016-09-14T00:25:32.722Z,20.06
2016-09-14T00:26:13.214Z,20.1
2016-09-14T00:26:53.829Z,19.99
2016-09-14T00:27:34.364Z,19.99
2016-09-14T00:28:14.902Z,20.1
2016-09-14T00:28:55.385Z,19.99
2016-09-14T00:29:35.956Z,20.02
2016-09-14T00:30:16.441Z,20.02
2016-09-14T00:30:57.093Z,20.02
2016-09-14T00:31:37.678Z,20.14
2016-09-14T00:32:19.782Z,20.03
2016-09-14T00:33:00.261Z,20.02
2016-09-14T00:33:40.806Z,20.01
2016-09-14T00:34:22.284Z,20.06
2016-09-14T00:35:02.785Z,20.03
2016-09-14T00:35:43.285Z,20.03
2016-09-14T00:36:23.838Z,20.08
2016-09-14T00:37:07.420Z,19.98
2016-09-14T00:37:49.667Z,20.01
2016-09-14T00:38:30.177Z,19.98
2016-09-14T00:39:10.755Z,19.96
2016-09-14T00:39:51.373Z,20.08
2016-09-14T00:40:31.871Z,20.03
2016-09-14T00:41:14.299Z,20.01
2016-09-14T00:41:56.419Z,19.88
2016-09-14T00:42:37.064Z,19.98
2016-09-14T00:43:17.583Z,19.86
2016-09-14T00:43:58.124Z,19.86
2016-09-14T00:44:38.684Z,19.86
2016-09-14T00:45:19.237Z,19.83
2016-09-14T00:45:59.856Z,19.8
2016-09-14T00:46:40.410Z,19.81
2016-09-14T00:47:20.962Z,19.76
2016-09-14T00:48:03.125Z,19.77
2016-09-14T00:48:43.668Z,19.74
2016-09-14T00:49:24.176Z,19.69
2016-09-14T00:50:04.687Z,19.73
2016-09-14T00:50:45.246Z,19.77
2016-09-14T00:51:25.830Z,19.71
2016-09-14T00:52:08.314Z,19.74
2016-09-14T00:52:48.837Z,19.71
2016-09-14T00:53:31.196Z,19.73
2016-09-14T00:54:11.790Z,19.76
2016-09-14T00:54:52.310Z,19.77
2016-09-14T00:55:32.896Z,19.66
2016-09-14T00:56:13.465Z,19.77
2016-09-14T00:56:53.949Z,19.68
2016-09-14T00:57:34.536Z,19.74
2016-09-14T00:58:17.138Z,19.73
2016-09-14T00:58:57.652Z,19.71
2016-09-14T00:59:38.152Z,19.66
2016-09-14T01:00:18.752Z,19.73
2016-09-14T01:00:59.310Z,19.69
2016-09-14T01:01:39.881Z,19.68
2016-09-14T01:02:20.369Z,19.59
2016-09-14T01:03:00.918Z,19.66
2016-09-14T01:03:41.511Z,19.73
2016-09-14T01:04:22.083Z,19.65
2016-09-14T01:05:02.730Z,19.68
2016-09-14T01:05:44.883Z,19.59
2016-09-14T01:06:27.072Z,19.59
2016-09-14T01:07:10.356Z,19.61
2016-09-14T01:07:50.908Z,19.61
2016-09-14T01:08:31.433Z,19.59
2016-09-14T01:09:12.047Z,19.55
2016-09-14T01:09:52.572Z,19.61
2016-09-14T01:10:33.103Z,19.55
2016-09-14T01:11:13.686Z,19.63
2016-09-14T01:11:54.197Z,19.58
2016-09-14T01:12:34.738Z,19.56
2016-09-14T01:13:15.499Z,19.58
2016-09-14T01:13:55.997Z,19.63
2016-09-14T01:14:36.543Z,19.59
2016-09-14T01:15:17.071Z,19.59
2016-09-14T01:15:57.671Z,19.59
2016-09-14T01:16:38.207Z,19.62
2016-09-14T01:17:18.787Z,19.51
2016-09-14T01:17:59.338Z,19.51
2016-09-14T01:18:39.871Z,19.62
2016-09-14T01:19:20.538Z,19.62
2016-09-14T01:20:01.143Z,19.54
2016-09-14T01:20:41.716Z,19.54
2016-09-14T01:21:22.285Z,19.48
2016-09-14T01:22:02.865Z,19.55
2016-09-14T01:22:43.397Z,19.44
2016-09-14T01:23:24.020Z,19.37
2016-09-14T01:24:04.598Z,19.47
2016-09-14T01:24:45.144Z,19.39
2016-09-14T01:25:25.644Z,19.36
2016-09-14T01:26:06.183Z,19.37
2016-09-14T01:26:46.693Z,19.31
2016-09-14T01:27:27.225Z,19.32
2016-09-14T01:28:07.786Z,19.26
2016-09-14T01:28:48.328Z,19.26
2016-09-14T01:29:28.984Z,19.25
2016-09-14T01:30:09.516Z,19.28
2016-09-14T01:30:50.032Z,19.21
2016-09-14T01:31:30.741Z,19.26
2016-09-14T01:32:11.285Z,19.23
2016-09-14T01:32:51.802Z,19.25
2016-09-14T01:33:32.357Z,19.31
2016-09-14T01:34:13.041Z,19.23
2016-09-14T01:34:55.253Z,19.26
2016-09-14T01:35:35.830Z,19.25
2016-09-14T01:36:16.361Z,19.25
2016-09-14T01:36:56.956Z,19.26
2016-09-14T01:37:37.541Z,19.26
2016-09-14T01:38:19.734Z,19.25
2016-09-14T01:39:00.286Z,19.28
2016-09-14T01:39:40.800Z,19.36
2016-09-14T01:40:21.323Z,19.36
2016-09-14T01:41:01.976Z,19.32
2016-09-14T01:41:42.644Z,19.33
2016-09-14T01:42:23.212Z,19.33
2016-09-14T01:43:05.397Z,19.31
2016-09-14T01:43:47.519Z,19.32
2016-09-14T01:44:28.074Z,19.37
2016-09-14T01:45:08.625Z,19.23
2016-09-14T01:45:51.056Z,19.36
2016-09-14T01:46:31.580Z,19.28
2016-09-14T01:47:12.182Z,19.32
2016-09-14T01:47:54.413Z,19.31
2016-09-14T01:48:35.059Z,19.22
2016-09-14T01:49:15.616Z,19.36
2016-09-14T01:49:56.231Z,19.32
2016-09-14T01:50:36.743Z,19.29
2016-09-14T01:51:17.463Z,19.31
2016-09-14T01:51:58.087Z,19.25
2016-09-14T01:52:38.709Z,19.28
2016-09-14T01:53:19.332Z,19.28
2016-09-14T01:53:59.942Z,19.29
2016-09-14T01:54:40.449Z,19.28
2016-09-14T01:55:21.028Z,19.29
2016-09-14T01:56:01.630Z,19.32
2016-09-14T01:56:44.122Z,19.29
2016-09-14T01:57:24.622Z,19.32
2016-09-14T01:58:05.205Z,19.32
2016-09-14T01:58:45.743Z,19.28
2016-09-14T01:59:26.355Z,19.36
2016-09-14T02:00:06.918Z,19.31
2016-09-14T02:00:47.513Z,19.26
2016-09-14T02:01:28.116Z,19.32
2016-09-14T02:02:08.699Z,19.29
2016-09-14T02:02:49.270Z,19.28
2016-09-14T02:03:29.907Z,19.26
2016-09-14T02:04:10.526Z,19.33
2016-09-14T02:04:51.145Z,19.32
2016-09-14T02:05:34.404Z,19.36
2016-09-14T02:06:15.027Z,19.29
2016-09-14T02:06:55.564Z,19.29
2016-09-14T02:07:36.079Z,19.31
2016-09-14T02:08:16.700Z,19.36
2016-09-14T02:08:57.414Z,19.31
2016-09-14T02:09:42.495Z,19.29
2016-09-14T02:10:23.062Z,19.32
2016-09-14T02:11:03.705Z,19.32
2016-09-14T02:11:44.226Z,19.28
2016-09-14T02:12:24.778Z,19.29
2016-09-14T02:13:05.374Z,19.26
2016-09-14T02:13:47.674Z,19.28
2016-09-14T02:14:28.227Z,19.22
2016-09-14T02:15:08.848Z,19.25
2016-09-14T02:15:49.353Z,19.21
2016-09-14T02:16:29.877Z,19.21
2016-09-14T02:17:10.412Z,19.13
2016-09-14T02:17:51.000Z,19.23
2016-09-14T02:18:31.604Z,19.21
2016-09-14T02:19:12.239Z,19.18
2016-09-14T02:19:52.828Z,19.16
2016-09-14T02:20:33.437Z,19.21
2016-09-14T02:21:15.484Z,19.19
2016-09-14T02:21:56.019Z,19.18
2016-09-14T02:22:36.601Z,19.11
2016-09-14T02:23:18.987Z,19.13
2016-09-14T02:24:01.417Z,19.18
2016-09-14T02:24:42.033Z,19.14
2016-09-14T02:25:22.515Z,19.14
2016-09-14T02:26:03.042Z,19.07
2016-09-14T02:26:43.563Z,19.14
2016-09-14T02:27:24.173Z,19.06
2016-09-14T02:28:04.693Z,19.11
2016-09-14T02:28:45.327Z,19.11
2016-09-14T02:29:25.898Z,19.08
2016-09-14T02:30:06.490Z,19.08
2016-09-14T02:30:48.815Z,19.02
2016-09-14T02:31:29.385Z,19.06
2016-09-14T02:32:09.991Z,19
2016-09-14T02:32:50.569Z,19.04
2016-09-14T02:33:31.058Z,19
2016-09-14T02:34:11.644Z,18.99
2016-09-14T02:34:52.141Z,19.04
2016-09-14T02:35:32.723Z,19.02
2016-09-14T02:36:15.012Z,18.95
2016-09-14T02:36:55.497Z,19
2016-09-14T02:37:36.045Z,18.98
2016-09-14T02:38:16.692Z,19.04
2016-09-14T02:38:57.233Z,19.04
2016-09-14T02:39:37.882Z,18.98
2016-09-14T02:40:18.554Z,19.07
2016-09-14T02:40:59.170Z,18.99
2016-09-14T02:41:39.828Z,18.98
2016-09-14T02:42:20.319Z,18.98
2016-09-14T02:43:00.872Z,18.98
2016-09-14T02:43:41.499Z,18.98
2016-09-14T02:44:22.041Z,18.98
2016-09-14T02:45:02.539Z,19.06
2016-09-14T02:45:43.087Z,18.98
2016-09-14T02:46:23.827Z,18.95
2016-09-14T02:47:04.258Z,18.98
2016-09-14T02:47:44.800Z,18.95
2016-09-14T02:48:25.393Z,18.98
2016-09-14T02:49:05.914Z,18.98
2016-09-14T02:49:46.642Z,19.02
2016-09-14T02:50:27.201Z,19.04
2016-09-14T02:51:07.745Z,18.92
2016-09-14T02:51:48.291Z,18.99
2016-09-14T02:52:29.014Z,18.99
2016-09-14T02:53:09.534Z,18.98
2016-09-14T02:53:50.048Z,18.98
2016-09-14T02:54:30.577Z,18.94
2016-09-14T02:55:11.200Z,18.95
2016-09-14T02:55:51.729Z,18.8
2016-09-14T02:56:32.277Z,18.82
2016-09-14T02:57:12.830Z,18.87
2016-09-14T02:57:53.323Z,18.84
2016-09-14T02:58:35.651Z,18.9
2016-09-14T02:59:16.213Z,18.87
2016-09-14T02:59:56.737Z,18.94
2016-09-14T03:00:37.316Z,18.8
2016-09-14T03:01:17.860Z,18.92
2016-09-14T03:01:58.412Z,18.9
2016-09-14T03:02:38.951Z,18.81
2016-09-14T03:03:19.482Z,18.76
2016-09-14T03:04:00.064Z,18.81
2016-09-14T03:04:43.540Z,18.78
2016-09-14T03:05:24.124Z,18.76
2016-09-14T03:06:04.854Z,18.78
2016-09-14T03:06:45.425Z,18.75
2016-09-14T03:07:25.999Z,18.8
2016-09-14T03:08:06.484Z,18.7
2016-09-14T03:08:47.214Z,18.7
2016-09-14T03:09:27.764Z,18.81
2016-09-14T03:10:08.414Z,18.67
2016-09-14T03:10:48.944Z,18.73
2016-09-14T03:11:29.450Z,18.65
2016-09-14T03:12:11.728Z,18.66
2016-09-14T03:12:52.238Z,18.72
2016-09-14T03:13:32.828Z,18.6
2016-09-14T03:14:13.426Z,18.7
2016-09-14T03:14:53.983Z,18.72
2016-09-14T03:15:34.524Z,18.7
2016-09-14T03:16:15.093Z,18.72
2016-09-14T03:16:55.646Z,18.63
2016-09-14T03:17:36.203Z,18.65
2016-09-14T03:19:11.848Z,18.67
2016-09-14T03:19:52.393Z,18.62
2016-09-14T03:20:32.936Z,18.63
2016-09-14T03:21:13.492Z,18.6
2016-09-14T03:21:54.039Z,18.57
2016-09-14T03:22:34.589Z,18.62
2016-09-14T03:23:15.128Z,18.62
2016-09-14T03:23:55.599Z,18.6
2016-09-14T03:24:36.155Z,18.54
2016-09-14T03:25:16.761Z,18.55
2016-09-14T03:25:57.252Z,18.47
2016-09-14T03:26:37.850Z,18.47
2016-09-14T03:27:18.316Z,18.52
2016-09-14T03:27:58.815Z,18.5
2016-09-14T03:28:39.322Z,18.5
2016-09-14T03:29:19.836Z,18.55
2016-09-14T03:30:00.415Z,18.52
2016-09-14T03:30:40.984Z,18.52
2016-09-14T03:31:21.531Z,18.51
2016-09-14T03:32:01.948Z,18.52
2016-09-14T03:32:42.445Z,18.5
2016-09-14T03:33:22.951Z,18.47
2016-09-14T03:34:03.486Z,18.47
2016-09-14T03:34:43.993Z,18.51
2016-09-14T03:35:24.461Z,18.52
2016-09-14T03:36:04.963Z,18.5
2016-09-14T03:36:45.495Z,18.51
2016-09-14T03:37:25.999Z,18.47
2016-09-14T03:38:06.520Z,18.52
2016-09-14T03:38:47.040Z,18.47
2016-09-14T03:39:27.569Z,18.5
2016-09-14T03:40:08.126Z,18.48
2016-09-14T03:40:48.613Z,18.45
2016-09-14T03:41:29.146Z,18.47
2016-09-14T03:42:09.684Z,18.52
2016-09-14T03:42:50.196Z,18.5
2016-09-14T03:43:30.661Z,18.48
2016-09-14T03:44:11.204Z,18.54
2016-09-14T03:44:51.692Z,18.47
2016-09-14T03:45:32.257Z,18.52
2016-09-14T03:46:12.796Z,18.5
2016-09-14T03:46:53.346Z,18.5
2016-09-14T03:47:33.896Z,18.47
2016-09-14T03:48:14.444Z,18.47
2016-09-14T03:48:54.992Z,18.51
2016-09-14T03:49:35.509Z,18.52
2016-09-14T03:50:16.042Z,18.48
2016-09-14T03:50:56.589Z,18.44
2016-09-14T03:51:37.158Z,18.5
2016-09-14T03:52:17.665Z,18.44
2016-09-14T03:52:58.174Z,18.45
2016-09-14T03:53:38.775Z,18.36
2016-09-14T03:54:19.738Z,18.45
2016-09-14T03:55:00.509Z,18.44
2016-09-14T03:55:41.152Z,18.41
2016-09-14T03:56:21.747Z,18.35
2016-09-14T03:57:02.232Z,18.33
2016-09-14T03:57:42.856Z,18.35
2016-09-14T03:58:23.375Z,18.41
2016-09-14T03:59:03.822Z,18.48
2016-09-14T03:59:44.365Z,18.5
2016-09-14T04:00:24.980Z,18.39
2016-09-14T04:01:05.439Z,18.41
2016-09-14T04:01:45.935Z,18.48
2016-09-14T04:02:26.469Z,18.42
2016-09-14T04:03:06.982Z,18.47
2016-09-14T04:03:47.550Z,18.51
2016-09-14T04:04:28.073Z,18.5
2016-09-14T04:05:08.647Z,18.55
2016-09-14T04:05:49.154Z,18.52
2016-09-14T04:06:29.634Z,18.54
2016-09-14T04:07:10.158Z,18.47
2016-09-14T04:07:50.680Z,18.52
2016-09-14T04:08:31.202Z,18.52
2016-09-14T04:09:11.734Z,18.51
2016-09-14T04:09:52.309Z,18.52
2016-09-14T04:10:32.841Z,18.42
2016-09-14T04:11:13.435Z,18.42
2016-09-14T04:11:53.917Z,18.39
2016-09-14T04:13:14.999Z,18.45
2016-09-14T04:13:55.552Z,18.47
2016-09-14T04:14:36.184Z,18.42
2016-09-14T04:15:16.690Z,18.35
2016-09-14T04:15:57.252Z,18.39
2016-09-14T04:16:37.787Z,18.42
2016-09-14T04:17:18.422Z,18.33
2016-09-14T04:17:58.986Z,18.35
2016-09-14T04:18:39.507Z,18.33
2016-09-14T04:19:20.136Z,18.41
2016-09-14T04:20:00.667Z,18.36
2016-09-14T04:20:41.224Z,18.3
2016-09-14T04:21:21.756Z,18.3
2016-09-14T04:22:02.317Z,18.41
2016-09-14T04:22:42.878Z,18.36
2016-09-14T04:23:23.400Z,18.37
2016-09-14T04:24:04.010Z,18.29
2016-09-14T04:24:44.493Z,18.35
2016-09-14T04:25:24.961Z,18.27
2016-09-14T04:26:05.473Z,18.33
2016-09-14T04:26:45.973Z,18.45
2016-09-14T04:27:26.500Z,18.45
2016-09-14T04:28:07.015Z,18.35
2016-09-14T04:28:47.681Z,18.42
2016-09-14T04:29:28.205Z,18.42
2016-09-14T04:30:08.775Z,18.44
2016-09-14T04:30:49.244Z,18.32
2016-09-14T04:31:29.819Z,18.3
2016-09-14T04:32:10.276Z,18.33
2016-09-14T04:32:50.801Z,18.36
2016-09-14T04:33:31.345Z,18.41
2016-09-14T04:34:11.856Z,18.41
2016-09-14T04:34:52.363Z,18.41
2016-09-14T04:35:32.887Z,18.3
2016-09-14T04:36:13.463Z,18.36
2016-09-14T04:36:54.024Z,18.39
2016-09-14T04:37:34.523Z,18.35
2016-09-14T04:38:15.059Z,18.29
2016-09-14T04:38:55.593Z,18.39
2016-09-14T04:39:36.100Z,18.32
2016-09-14T04:40:16.803Z,18.3
2016-09-14T04:40:57.252Z,18.29
2016-09-14T04:41:37.771Z,18.39
2016-09-14T04:42:18.274Z,18.29
2016-09-14T04:42:58.799Z,18.36
2016-09-14T04:43:39.314Z,18.39
2016-09-14T04:44:19.919Z,18.37
2016-09-14T04:45:01.565Z,18.32
2016-09-14T04:45:42.078Z,18.42
2016-09-14T04:46:22.705Z,18.45
2016-09-14T04:47:03.527Z,18.36
2016-09-14T04:47:44.068Z,18.35
2016-09-14T04:48:24.832Z,18.29
2016-09-14T04:49:05.695Z,18.36
2016-09-14T04:49:46.119Z,18.29
2016-09-14T04:50:26.656Z,18.39
2016-09-14T04:51:07.216Z,18.35
2016-09-14T04:51:47.763Z,18.32
2016-09-14T04:52:28.314Z,18.44
2016-09-14T04:53:08.861Z,18.35
2016-09-14T04:53:49.406Z,18.51
2016-09-14T04:54:29.944Z,18.54
2016-09-14T04:55:10.486Z,18.57
2016-09-14T04:55:51.016Z,18.44
2016-09-14T04:56:31.565Z,18.45
2016-09-14T04:57:12.107Z,18.55
2016-09-14T04:57:52.665Z,18.48
2016-09-14T04:58:33.208Z,18.41
2016-09-14T04:59:13.780Z,18.35
2016-09-14T04:59:54.301Z,18.32
2016-09-14T05:00:34.882Z,18.37
2016-09-14T05:01:15.426Z,18.23
2016-09-14T05:01:55.968Z,18.35
2016-09-14T05:02:36.521Z,18.21
2016-09-14T05:03:17.029Z,18.27
2016-09-14T05:03:57.579Z,18.23
2016-09-14T05:04:38.127Z,18.18
2016-09-14T05:05:18.672Z,18.21
2016-09-14T05:05:59.216Z,18.2
2016-09-14T05:06:39.756Z,18.21
2016-09-14T05:07:20.309Z,18.15
2016-09-14T05:08:00.842Z,18.18
2016-09-14T05:08:41.390Z,18.14
2016-09-14T05:09:21.923Z,18.1
2016-09-14T05:10:02.468Z,18.11
2016-09-14T05:10:43.015Z,18.1
2016-09-14T05:11:23.552Z,18.11
2016-09-14T05:12:04.095Z,18.11
2016-09-14T05:12:44.629Z,18.05
2016-09-14T05:13:25.179Z,18.07
2016-09-14T05:14:05.730Z,18.11
2016-09-14T05:14:46.272Z,18.05
2016-09-14T05:15:26.803Z,18.1
2016-09-14T05:16:07.339Z,18.05
2016-09-14T05:16:47.877Z,18.02
2016-09-14T05:17:28.430Z,18.08
2016-09-14T05:18:08.979Z,17.99
2016-09-14T05:18:49.519Z,18
2016-09-14T05:19:30.069Z,18.03
2016-09-14T05:20:10.621Z,18.07
2016-09-14T05:20:51.171Z,18
2016-09-14T05:21:31.718Z,18
2016-09-14T05:22:12.269Z,18.05
2016-09-14T05:22:52.814Z,18.03
2016-09-14T05:23:33.358Z,18.1
2016-09-14T05:24:13.891Z,18.03
2016-09-14T05:24:54.433Z,18
2016-09-14T05:25:34.976Z,18.02
2016-09-14T05:26:15.520Z,18.03
2016-09-14T05:26:56.076Z,17.96
2016-09-14T05:27:36.634Z,17.99
2016-09-14T05:28:17.180Z,18.05
2016-09-14T05:28:57.735Z,17.95
2016-09-14T05:29:38.266Z,17.9
2016-09-14T05:30:18.819Z,18
2016-09-14T05:30:59.364Z,17.96
2016-09-14T05:31:39.918Z,17.99
2016-09-14T05:32:20.465Z,18.1
2016-09-14T05:33:01.015Z,17.96
2016-09-14T05:33:41.560Z,17.99
2016-09-14T05:34:22.111Z,17.93
2016-09-14T05:35:02.654Z,17.95
2016-09-14T05:35:43.199Z,17.92
2016-09-14T05:36:23.741Z,18
2016-09-14T05:37:04.284Z,17.96
2016-09-14T05:37:44.832Z,17.95
2016-09-14T05:38:25.385Z,17.92
2016-09-14T05:39:05.930Z,17.95
2016-09-14T05:39:46.472Z,17.95
2016-09-14T05:40:27.015Z,18.14
2016-09-14T05:41:07.551Z,17.99
2016-09-14T05:41:48.105Z,17.96
2016-09-14T05:42:28.641Z,17.96
2016-09-14T05:43:09.200Z,17.99
2016-09-14T05:43:49.743Z,18.03
2016-09-14T05:44:30.284Z,17.99
2016-09-14T05:45:10.823Z,18.02
2016-09-14T05:45:51.376Z,17.97
2016-09-14T05:46:31.910Z,18.07
2016-09-14T05:47:12.453Z,18.07
2016-09-14T05:47:52.980Z,18.05
2016-09-14T05:48:33.523Z,18.07
2016-09-14T05:49:14.071Z,18.05
2016-09-14T05:49:54.624Z,18.03
2016-09-14T05:50:35.172Z,18.05
2016-09-14T05:51:15.729Z,18.05
2016-09-14T05:51:56.278Z,18.12
2016-09-14T05:52:36.881Z,18.07
2016-09-14T05:53:17.363Z,18.03
2016-09-14T05:53:57.923Z,18.08
2016-09-14T05:54:38.463Z,18.1
2016-09-14T05:55:19.009Z,18.1
2016-09-14T05:55:59.570Z,18.11
2016-09-14T05:56:40.090Z,18.11
2016-09-14T05:57:20.627Z,18.11
2016-09-14T05:58:01.171Z,18.1
2016-09-14T05:58:41.731Z,18.11
2016-09-14T05:59:22.267Z,18.14
2016-09-14T06:00:02.816Z,18.18
2016-09-14T06:00:43.361Z,18.12
2016-09-14T06:01:23.917Z,18.17
2016-09-14T06:02:04.465Z,18.12
2016-09-14T06:02:45.018Z,18.17
2016-09-14T06:03:25.582Z,18.2
2016-09-14T06:04:06.073Z,18.25
2016-09-14T06:04:46.602Z,18.27
2016-09-14T06:05:27.134Z,18.25
2016-09-14T06:06:07.691Z,18.27
2016-09-14T06:06:48.241Z,18.25
2016-09-14T06:07:28.782Z,18.25
2016-09-14T06:08:09.335Z,18.23
2016-09-14T06:08:49.873Z,18.23
2016-09-14T06:09:30.416Z,18.39
2016-09-14T06:10:11.567Z,18.33
2016-09-14T06:10:52.115Z,18.32
2016-09-14T06:11:32.670Z,18.27
2016-09-14T06:12:13.211Z,18.32
2016-09-14T06:12:53.757Z,18.3
2016-09-14T06:13:34.302Z,18.35
2016-09-14T06:14:14.849Z,18.37
2016-09-14T06:14:55.397Z,18.35
2016-09-14T06:15:35.929Z,18.32
2016-09-14T06:16:16.461Z,18.33
2016-09-14T06:16:57.012Z,18.37
2016-09-14T06:17:37.560Z,18.45
2016-09-14T06:18:18.094Z,18.36
2016-09-14T06:18:58.659Z,18.45
2016-09-14T06:19:39.207Z,18.42
2016-09-14T06:20:19.749Z,18.48
2016-09-14T06:21:00.304Z,18.51
2016-09-14T06:21:40.851Z,18.47
2016-09-14T06:22:21.411Z,18.51
2016-09-14T06:23:01.952Z,18.48
2016-09-14T06:23:42.515Z,18.6
2016-09-14T06:24:23.077Z,18.57
2016-09-14T06:25:03.615Z,18.58
2016-09-14T06:25:44.168Z,18.62
2016-09-14T06:26:24.709Z,18.69
2016-09-14T06:27:05.291Z,18.72
2016-09-14T06:27:45.839Z,18.69
2016-09-14T06:28:26.451Z,18.72
2016-09-14T06:29:07.006Z,18.73
2016-09-14T06:29:47.554Z,18.76
2016-09-14T06:30:28.113Z,18.81
2016-09-14T06:31:08.666Z,18.8
2016-09-14T06:31:49.213Z,18.78
2016-09-14T06:32:29.786Z,18.81
2016-09-14T06:33:10.330Z,18.81
2016-09-14T06:33:50.880Z,18.82
2016-09-14T06:34:31.427Z,18.94
2016-09-14T06:35:11.980Z,18.9
2016-09-14T06:35:52.530Z,18.94
2016-09-14T06:36:33.075Z,19
2016-09-14T06:37:13.644Z,18.99
2016-09-14T06:37:54.170Z,19.04
2016-09-14T06:38:34.716Z,19.07
2016-09-14T06:39:15.264Z,19.13
2016-09-14T06:39:55.804Z,19.11
2016-09-14T06:40:36.367Z,19.18
2016-09-14T06:41:16.905Z,19.21
2016-09-14T06:41:57.453Z,19.28
2016-09-14T06:42:38.004Z,19.32
2016-09-14T06:43:18.553Z,19.32
2016-09-14T06:43:59.106Z,19.29
2016-09-14T06:44:39.657Z,19.25
2016-09-14T06:45:20.208Z,19.25
2016-09-14T06:46:00.760Z,19.22
2016-09-14T06:46:41.306Z,19.36
2016-09-14T06:47:21.850Z,19.32
2016-09-14T06:48:02.400Z,19.36
2016-09-14T06:48:42.944Z,19.37
2016-09-14T06:49:23.493Z,19.39
2016-09-14T06:50:04.044Z,19.39
2016-09-14T06:50:44.589Z,19.37
2016-09-14T06:51:25.137Z,19.4
2016-09-14T06:52:05.675Z,19.41
2016-09-14T06:52:46.223Z,19.41
2016-09-14T06:53:26.771Z,19.37
2016-09-14T06:54:07.314Z,19.37
2016-09-14T06:54:47.861Z,19.43
2016-09-14T06:55:28.405Z,19.43
2016-09-14T06:56:08.953Z,19.51
2016-09-14T06:56:49.506Z,19.5
2016-09-14T06:57:30.067Z,19.54
2016-09-14T06:58:10.593Z,19.61
2016-09-14T06:58:51.154Z,19.54
2016-09-14T06:59:31.704Z,19.66
2016-09-14T07:00:12.249Z,19.74
2016-09-14T07:00:52.799Z,19.73
2016-09-14T07:01:33.370Z,19.76
2016-09-14T07:02:13.910Z,19.73
2016-09-14T07:02:54.464Z,19.74
2016-09-14T07:03:35.006Z,19.8
2016-09-14T07:04:15.558Z,19.91
2016-09-14T07:04:56.104Z,19.86
2016-09-14T07:05:36.653Z,19.88
2016-09-14T07:06:17.201Z,19.94
2016-09-14T07:06:57.759Z,19.98
2016-09-14T07:07:38.307Z,20.01
2016-09-14T07:08:18.858Z,20.11
2016-09-14T07:08:59.409Z,20.13
2016-09-14T07:09:39.961Z,20.13
2016-09-14T07:10:20.511Z,20.17
2016-09-14T07:11:01.064Z,20.2
2016-09-14T07:11:41.614Z,20.28
2016-09-14T07:12:22.163Z,20.31
2016-09-14T07:13:02.711Z,20.24
2016-09-14T07:13:43.267Z,20.36
2016-09-14T07:14:23.819Z,20.43
2016-09-14T07:15:04.371Z,20.58
2016-09-14T07:15:44.917Z,20.55
2016-09-14T07:16:25.482Z,20.55
2016-09-14T07:17:06.030Z,20.51
2016-09-14T07:17:46.572Z,20.61
2016-09-14T07:18:27.121Z,20.62
2016-09-14T07:19:07.670Z,20.61
2016-09-14T07:19:48.224Z,20.62
2016-09-14T07:20:28.773Z,20.62
2016-09-14T07:21:09.335Z,20.69
2016-09-14T07:21:49.893Z,20.73
2016-09-14T07:22:30.429Z,20.74
2016-09-14T07:23:10.980Z,20.72
2016-09-14T07:23:51.518Z,20.74
2016-09-14T07:24:32.061Z,20.72
2016-09-14T07:25:12.632Z,20.7
2016-09-14T07:25:53.191Z,20.8
2016-09-14T07:26:33.734Z,20.8
2016-09-14T07:27:14.284Z,20.87
2016-09-14T07:27:54.830Z,20.89
2016-09-14T07:28:35.382Z,20.87
2016-09-14T07:29:15.939Z,20.94
2016-09-14T07:29:56.487Z,20.97
2016-09-14T07:30:37.037Z,20.92
2016-09-14T07:31:17.586Z,20.94
2016-09-14T07:31:58.135Z,20.98
2016-09-14T07:32:38.688Z,20.95
2016-09-14T07:33:19.238Z,20.99
2016-09-14T07:33:59.789Z,20.99
2016-09-14T07:34:40.340Z,20.97
2016-09-14T07:35:20.893Z,21.09
2016-09-14T07:36:01.455Z,21.14
2016-09-14T07:36:42.000Z,21.04
2016-09-14T07:37:22.548Z,21.1
2016-09-14T07:38:03.099Z,21.25
2016-09-14T07:38:43.649Z,21.28
2016-09-14T07:39:24.201Z,21.21
2016-09-14T07:40:04.752Z,21.27
2016-09-14T07:40:45.299Z,21.32
2016-09-14T07:41:25.873Z,21.35
2016-09-14T07:42:06.415Z,21.44
2016-09-14T07:42:46.958Z,21.44
2016-09-14T07:43:27.508Z,21.46
2016-09-14T07:44:08.060Z,21.54
2016-09-14T07:44:48.610Z,21.62
2016-09-14T07:45:29.160Z,21.68
2016-09-14T07:46:09.706Z,21.59
2016-09-14T07:46:50.257Z,21.54
2016-09-14T07:47:30.814Z,21.62
2016-09-14T07:48:11.364Z,21.72
2016-09-14T07:48:51.905Z,21.67
2016-09-14T07:49:32.459Z,21.77
2016-09-14T07:50:13.010Z,21.79
2016-09-14T07:50:53.568Z,21.83
2016-09-14T07:51:34.115Z,21.92
2016-09-14T07:52:14.666Z,21.88
2016-09-14T07:52:55.221Z,21.92
2016-09-14T07:53:35.769Z,22.02
2016-09-14T07:54:16.320Z,22.03
2016-09-14T07:54:56.873Z,22.06
2016-09-14T07:55:37.437Z,22.12
2016-09-14T07:56:17.989Z,22.14
2016-09-14T07:56:58.533Z,22.24
2016-09-14T07:57:39.084Z,22.15
2016-09-14T07:58:19.640Z,22.25
2016-09-14T07:59:00.195Z,22.31
2016-09-14T07:59:40.741Z,22.28
2016-09-14T08:00:21.292Z,22.33
2016-09-14T08:01:01.844Z,22.42
2016-09-14T08:01:42.391Z,22.4
2016-09-14T08:02:22.937Z,22.45
2016-09-14T08:03:03.489Z,22.43
2016-09-14T08:03:44.040Z,22.49
2016-09-14T08:04:24.591Z,22.58
2016-09-14T08:05:05.141Z,22.61
2016-09-14T08:05:45.687Z,22.64
2016-09-14T08:06:26.229Z,22.62
2016-09-14T08:07:06.781Z,22.79
2016-09-14T08:07:47.331Z,22.75
2016-09-14T08:08:27.882Z,22.85
2016-09-14T08:09:08.434Z,22.88
2016-09-14T08:09:48.992Z,22.92
2016-09-14T08:10:29.541Z,23
2016-09-14T08:11:10.088Z,22.97
2016-09-14T08:11:50.644Z,23
2016-09-14T08:12:31.194Z,23.07
2016-09-14T08:13:11.742Z,23.01
2016-09-14T08:13:52.288Z,23.1
2016-09-14T08:14:32.844Z,23.15
2016-09-14T08:15:13.394Z,23.2
2016-09-14T08:15:53.945Z,23.17
2016-09-14T08:16:34.498Z,23.17
2016-09-14T08:17:15.047Z,23.35
2016-09-14T08:17:55.598Z,23.33
2016-09-14T08:18:36.149Z,23.31
2016-09-14T08:19:16.697Z,23.38
2016-09-14T08:19:57.247Z,23.42
2016-09-14T08:20:37.798Z,23.43
2016-09-14T08:21:18.348Z,23.48
2016-09-14T08:21:58.901Z,23.46
2016-09-14T08:22:39.450Z,23.46
2016-09-14T08:23:20.037Z,23.55
2016-09-14T08:24:00.571Z,23.57
2016-09-14T08:24:41.117Z,23.58
2016-09-14T08:25:21.667Z,23.61
2016-09-14T08:26:02.235Z,23.7
2016-09-14T08:26:42.788Z,23.88
2016-09-14T08:27:23.332Z,23.83
2016-09-14T08:28:03.871Z,23.9
2016-09-14T08:28:44.420Z,23.94
2016-09-14T08:29:24.973Z,23.97
2016-09-14T08:30:05.524Z,24.02
2016-09-14T08:30:46.076Z,24.05
2016-09-14T08:31:26.632Z,24.2
2016-09-14T08:32:07.176Z,24.13
2016-09-14T08:32:47.729Z,24.18
2016-09-14T08:33:28.279Z,24.27
2016-09-14T08:34:08.836Z,24.34
2016-09-14T08:34:49.371Z,24.43
2016-09-14T08:35:29.923Z,24.46
2016-09-14T08:36:10.474Z,24.6
2016-09-14T08:36:51.023Z,24.58
2016-09-14T08:37:31.573Z,24.67
2016-09-14T08:38:12.124Z,24.65
2016-09-14T08:38:52.673Z,24.8
2016-09-14T08:39:33.237Z,24.88
2016-09-14T08:40:13.787Z,24.98
2016-09-14T08:40:54.330Z,24.99
2016-09-14T08:41:34.887Z,25
2016-09-14T08:42:15.438Z,24.99
2016-09-14T08:42:55.989Z,25.13
2016-09-14T08:43:36.540Z,25.09
2016-09-14T08:44:17.090Z,25.17
2016-09-14T08:44:57.644Z,25.21
2016-09-14T08:45:38.195Z,25.33
2016-09-14T08:46:18.750Z,25.4
2016-09-14T08:46:59.311Z,25.46
2016-09-14T08:47:39.864Z,25.57